createdAt,value
2018-08-10T00:01:58.014Z,20.37
2018-08-10T00:04:28.368Z,20.47
2018-08-10T00:06:58.742Z,19.17
2018-08-10T00:09:29.148Z,20.80
2018-08-10T00:11:59.497Z,20.00
2018-08-10T00:14:29.832Z,20.87
2018-08-10T00:17:01.288Z,19.17
2018-08-10T00:19:31.572Z,19.50
2018-08-10T00:22:02.011Z,19.50
2018-08-10T00:24:32.457Z,18.63
2018-08-10T00:27:02.838Z,19.57
2018-08-10T00:29:33.178Z,19.43
2018-08-10T00:32:03.596Z,19.63
2018-08-10T00:34:33.895Z,19.90
2018-08-10T00:37:04.312Z,20.53
2018-08-10T00:39:34.627Z,18.93
2018-08-10T00:42:05.020Z,19.90
2018-08-10T00:44:35.452Z,18.47
2018-08-10T00:47:05.772Z,19.60
2018-08-10T00:49:36.179Z,18.70
2018-08-10T00:52:06.580Z,19.97
2018-08-10T00:54:36.985Z,19.73
2018-08-10T00:57:07.278Z,19.17
2018-08-10T00:59:37.673Z,20.30
2018-08-10T01:02:08.083Z,18.83
2018-08-10T01:04:38.425Z,18.77
2018-08-10T01:07:08.728Z,20.33
2018-08-10T01:09:39.027Z,19.50
2018-08-10T01:12:09.352Z,19.20
2018-08-10T01:14:39.649Z,19.03
2018-08-10T01:17:09.988Z,19.27
2018-08-10T01:19:40.344Z,17.00
2018-08-10T01:22:10.626Z,18.80
2018-08-10T01:24:40.977Z,18.23
2018-08-10T01:27:16.448Z,18.47
2018-08-10T01:29:47.229Z,19.90
2018-08-10T01:32:17.568Z,19.63
2018-08-10T01:34:47.861Z,19.37
2018-08-10T01:37:18.344Z,18.40
2018-08-10T01:39:48.657Z,19.80
2018-08-10T01:42:18.927Z,19.20
2018-08-10T01:44:49.212Z,19.40
2018-08-10T01:47:19.533Z,18.37
2018-08-10T01:49:49.793Z,19.60
2018-08-10T01:52:20.086Z,19.00
2018-08-10T01:54:50.388Z,19.13
2018-08-10T01:57:20.666Z,18.87
2018-08-10T01:59:51.031Z,18.97
2018-08-10T02:02:21.369Z,19.00
2018-08-10T02:04:52.233Z,18.10
2018-08-10T02:07:22.555Z,17.70
2018-08-10T02:09:52.866Z,18.30
2018-08-10T02:12:23.159Z,18.53
2018-08-10T02:14:53.622Z,18.47
2018-08-10T02:17:23.881Z,18.93
2018-08-10T02:19:54.192Z,18.00
2018-08-10T02:22:24.429Z,18.60
2018-08-10T02:24:54.717Z,19.17
2018-08-10T02:27:24.996Z,18.57
2018-08-10T02:29:55.309Z,19.00
2018-08-10T02:32:25.605Z,17.87
2018-08-10T02:34:55.886Z,17.90
2018-08-10T02:37:26.211Z,17.87
2018-08-10T02:39:56.517Z,18.63
2018-08-10T02:42:26.801Z,18.60
2018-08-10T02:44:57.195Z,18.37
2018-08-10T02:47:27.510Z,17.33
2018-08-10T02:49:57.829Z,18.77
2018-08-10T02:52:28.152Z,17.13
2018-08-10T02:54:58.479Z,17.00
2018-08-10T02:57:28.832Z,16.47
2018-08-10T02:59:59.129Z,17.80
2018-08-10T03:02:29.467Z,17.17
2018-08-10T03:04:59.737Z,17.20
2018-08-10T03:07:30.086Z,17.90
2018-08-10T03:10:00.400Z,18.87
2018-08-10T03:12:30.727Z,16.40
2018-08-10T03:15:01.053Z,18.33
2018-08-10T03:17:31.389Z,18.47
2018-08-10T03:20:01.716Z,17.27
2018-08-10T03:22:32.088Z,16.70
2018-08-10T03:25:02.419Z,17.00
2018-08-10T03:27:33.380Z,18.67
2018-08-10T03:30:03.753Z,17.53
2018-08-10T03:32:34.081Z,18.10
2018-08-10T03:35:04.544Z,17.77
2018-08-10T03:37:34.909Z,19.30
2018-08-10T03:40:07.884Z,17.53
2018-08-10T03:42:38.288Z,18.00
2018-08-10T03:45:09.127Z,17.97
2018-08-10T03:47:40.172Z,18.50
2018-08-10T03:50:12.533Z,17.30
2018-08-10T03:52:43.642Z,17.13
2018-08-10T03:55:13.950Z,17.00
2018-08-10T03:57:44.295Z,18.23
2018-08-10T04:00:15.160Z,16.80
2018-08-10T04:02:45.499Z,16.83
2018-08-10T04:05:15.884Z,17.37
2018-08-10T04:07:46.243Z,17.30
2018-08-10T04:10:16.619Z,18.43
2018-08-10T04:12:46.932Z,16.97
2018-08-10T04:15:17.306Z,17.63
2018-08-10T04:17:47.625Z,17.50
2018-08-10T04:20:17.901Z,18.00
2018-08-10T04:22:48.271Z,17.37
2018-08-10T04:25:18.590Z,16.50
2018-08-10T04:27:48.892Z,16.90
2018-08-10T04:30:19.211Z,17.87
2018-08-10T04:32:49.645Z,17.87
2018-08-10T04:35:19.996Z,17.27
2018-08-10T04:37:50.465Z,17.60
2018-08-10T04:40:20.783Z,18.70
2018-08-10T04:42:51.135Z,16.80
2018-08-10T04:45:21.511Z,16.80
2018-08-10T04:47:51.912Z,18.53
2018-08-10T04:50:22.191Z,18.03
2018-08-10T04:52:52.624Z,19.20
2018-08-10T04:55:22.965Z,20.60
2018-08-10T04:57:53.317Z,18.73
2018-08-10T05:00:23.653Z,18.20
2018-08-10T05:02:53.936Z,17.70
2018-08-10T05:05:24.272Z,16.50
2018-08-10T05:07:54.548Z,17.50
2018-08-10T05:10:24.861Z,17.87
2018-08-10T05:12:55.158Z,17.53
2018-08-10T05:15:25.454Z,17.63
2018-08-10T05:17:55.807Z,16.73
2018-08-10T05:20:26.165Z,17.90
2018-08-10T05:22:56.514Z,17.10
2018-08-10T05:25:26.842Z,17.93
2018-08-10T05:27:57.972Z,16.80
2018-08-10T05:30:28.320Z,16.50
2018-08-10T05:32:58.715Z,16.07
2018-08-10T05:35:29.051Z,17.40
2018-08-10T05:37:59.436Z,16.80
2018-08-10T05:40:29.788Z,18.07
2018-08-10T05:43:00.104Z,18.83
2018-08-10T05:45:30.539Z,17.37
2018-08-10T05:48:00.911Z,19.27
2018-08-10T05:50:31.215Z,17.10
2018-08-10T05:53:01.572Z,17.67
2018-08-10T05:55:31.912Z,17.20
2018-08-10T05:58:02.224Z,17.40
2018-08-10T06:00:32.706Z,18.13
2018-08-10T06:03:03.009Z,18.30
2018-08-10T06:05:33.295Z,18.97
2018-08-10T06:08:03.589Z,21.07
2018-08-10T06:10:33.913Z,21.60
2018-08-10T06:13:04.274Z,19.83
2018-08-10T06:15:35.204Z,18.93
2018-08-10T06:18:06.075Z,20.63
2018-08-10T06:20:36.432Z,19.30
2018-08-10T06:23:06.798Z,19.17
2018-08-10T06:25:37.133Z,19.37
2018-08-10T06:28:07.482Z,20.40
2018-08-10T06:30:37.771Z,20.63
2018-08-10T06:33:08.085Z,23.07
2018-08-10T06:35:38.434Z,21.20
2018-08-10T06:38:08.700Z,19.40
2018-08-10T06:40:39.054Z,20.60
2018-08-10T06:43:09.364Z,18.93
2018-08-10T06:45:39.713Z,19.90
2018-08-10T06:48:10.064Z,18.50
2018-08-10T06:50:40.413Z,21.00
2018-08-10T06:53:10.699Z,21.10
2018-08-10T06:55:41.087Z,20.93
2018-08-10T06:58:11.352Z,22.00
2018-08-10T07:00:42.003Z,20.23
2018-08-10T07:03:12.329Z,21.37
2018-08-10T07:05:42.616Z,18.40
2018-08-10T07:08:12.966Z,19.37
2018-08-10T07:10:43.291Z,20.70
2018-08-10T07:13:13.679Z,20.40
2018-08-10T07:15:43.942Z,20.20
2018-08-10T07:18:14.248Z,21.47
2018-08-10T07:20:44.528Z,19.20
2018-08-10T07:23:14.903Z,21.47
2018-08-10T07:25:45.267Z,19.57
2018-08-10T07:28:15.604Z,21.17
2018-08-10T07:30:45.987Z,21.23
2018-08-10T07:33:16.298Z,21.27
2018-08-10T07:35:46.587Z,20.83
2018-08-10T07:38:17.076Z,21.47
2018-08-10T07:40:47.389Z,21.70
2018-08-10T07:43:17.748Z,20.50
2018-08-10T07:45:48.052Z,20.03
2018-08-10T07:48:18.391Z,20.33
2018-08-10T07:50:48.717Z,22.13
2018-08-10T07:53:19.052Z,21.20
2018-08-10T07:55:49.360Z,21.10
2018-08-10T07:58:19.725Z,21.60
2018-08-10T08:00:50.041Z,21.70
2018-08-10T08:03:20.475Z,21.37
2018-08-10T08:05:50.815Z,20.40
2018-08-10T08:08:21.160Z,20.50
2018-08-10T08:10:51.521Z,20.23
2018-08-10T08:13:21.904Z,21.23
2018-08-10T08:15:52.273Z,21.80
2018-08-10T08:18:22.627Z,20.40
2018-08-10T08:21:05.411Z,20.87
2018-08-10T08:23:35.991Z,20.17
2018-08-10T08:26:06.572Z,22.53
2018-08-10T08:28:37.252Z,22.40
2018-08-10T08:31:07.843Z,21.00
2018-08-10T08:33:55.171Z,22.30
2018-08-10T08:36:25.495Z,21.53
2018-08-10T08:40:27.523Z,20.60
2018-08-10T08:42:57.917Z,19.90
2018-08-10T08:45:43.762Z,21.40
2018-08-10T08:48:14.129Z,19.53
2018-08-10T08:50:45.872Z,19.80
2018-08-10T08:53:16.442Z,18.17
2018-08-10T08:55:58.933Z,17.40
2018-08-10T08:58:29.751Z,17.03
2018-08-10T09:01:00.131Z,20.00
2018-08-10T09:03:47.392Z,17.37
2018-08-10T09:06:17.763Z,17.40
2018-08-10T09:09:04.990Z,17.27
2018-08-10T09:11:35.291Z,16.27
2018-08-10T09:14:43.860Z,16.60
2018-08-10T09:17:14.329Z,17.47
2018-08-10T09:19:45.361Z,16.60
2018-08-10T09:22:15.727Z,17.13
2018-08-10T09:24:46.409Z,17.70
2018-08-10T09:27:16.832Z,18.17
2018-08-10T09:29:47.180Z,16.83
2018-08-10T09:32:17.595Z,16.40
2018-08-10T09:34:47.984Z,14.57
2018-08-10T09:37:18.395Z,15.23
2018-08-10T09:39:48.745Z,15.20
2018-08-10T09:42:19.215Z,14.83
2018-08-10T09:44:49.524Z,15.33
2018-08-10T09:47:19.933Z,15.33
2018-08-10T09:49:50.998Z,15.53
2018-08-10T09:52:21.423Z,16.30
2018-08-10T09:55:34.913Z,13.83
2018-08-10T09:58:10.299Z,13.40
2018-08-10T10:00:46.010Z,14.43
2018-08-10T10:03:18.825Z,14.83
2018-08-10T10:05:50.303Z,14.17
2018-08-10T10:08:21.599Z,14.37
2018-08-10T10:10:52.056Z,13.63
2018-08-10T10:13:22.444Z,13.50
2018-08-10T10:15:52.849Z,13.87
2018-08-10T10:18:23.368Z,13.43
2018-08-10T10:20:53.699Z,13.13
2018-08-10T10:23:24.079Z,12.73
2018-08-10T10:25:54.435Z,12.30
2018-08-10T10:28:24.784Z,13.43
2018-08-10T10:30:55.229Z,13.30
2018-08-10T10:33:25.628Z,13.27
2018-08-10T10:35:55.971Z,12.10
2018-08-10T10:38:26.363Z,11.80
2018-08-10T10:40:56.682Z,11.70
2018-08-10T10:43:27.068Z,11.70
2018-08-10T10:45:57.467Z,11.43
2018-08-10T10:48:27.876Z,11.10
2018-08-10T10:50:58.265Z,12.20
2018-08-10T10:53:28.702Z,10.97
2018-08-10T10:55:59.051Z,10.93
2018-08-10T10:58:29.424Z,11.90
2018-08-10T11:00:59.841Z,11.10
2018-08-10T11:03:30.258Z,10.67
2018-08-10T11:06:00.606Z,10.63
2018-08-10T11:08:30.959Z,10.17
2018-08-10T11:11:01.371Z,9.30
2018-08-10T11:13:31.736Z,9.43
2018-08-10T11:16:02.147Z,9.43
2018-08-10T11:18:32.512Z,10.30
2018-08-10T11:21:02.874Z,9.27
2018-08-10T11:23:33.232Z,9.10
2018-08-10T11:26:03.655Z,9.33
2018-08-10T11:28:33.938Z,9.00
2018-08-10T11:31:04.352Z,9.23
2018-08-10T11:33:34.751Z,9.60
2018-08-10T11:36:05.183Z,9.83
2018-08-10T11:38:35.476Z,9.07
2018-08-10T11:41:05.864Z,9.13
2018-08-10T11:43:36.192Z,9.63
2018-08-10T11:46:06.647Z,9.90
2018-08-10T11:48:36.936Z,9.80
2018-08-10T11:51:07.519Z,9.37
2018-08-10T11:53:38.392Z,8.77
2018-08-10T11:56:09.131Z,9.63
2018-08-10T11:58:39.465Z,8.47
2018-08-10T12:01:09.830Z,9.50
2018-08-10T12:03:40.210Z,9.40
2018-08-10T12:06:10.719Z,9.63
2018-08-10T12:08:41.073Z,9.30
2018-08-10T12:11:11.519Z,9.13
2018-08-10T12:13:42.248Z,9.60
2018-08-10T12:16:12.620Z,9.20
2018-08-10T12:18:42.994Z,9.30
2018-08-10T12:21:13.423Z,9.17
2018-08-10T12:23:43.777Z,9.13
2018-08-10T12:26:14.254Z,8.87
2018-08-10T12:28:44.684Z,9.10
2018-08-10T12:31:15.037Z,9.67
2018-08-10T12:33:45.562Z,9.80
2018-08-10T12:36:15.921Z,9.60
2018-08-10T12:38:46.388Z,9.40
2018-08-10T12:41:16.727Z,10.00
2018-08-10T12:43:47.550Z,9.60
2018-08-10T12:46:18.047Z,9.50
2018-08-10T12:48:48.534Z,9.50
2018-08-10T12:51:18.891Z,9.03
2018-08-10T12:53:49.285Z,9.37
2018-08-10T12:56:19.918Z,10.07
2018-08-10T12:58:50.242Z,9.30
2018-08-10T13:01:20.793Z,8.87
2018-08-10T13:03:51.169Z,8.70
2018-08-10T13:06:21.544Z,9.23
2018-08-10T13:08:51.838Z,9.10
2018-08-10T13:11:22.751Z,8.80
2018-08-10T13:13:53.140Z,9.03
2018-08-10T13:16:23.565Z,9.13
2018-08-10T13:18:54.386Z,9.10
2018-08-10T13:21:24.800Z,8.03
2018-08-10T13:23:55.260Z,9.23
2018-08-10T13:26:25.579Z,9.33
2018-08-10T13:28:56.068Z,9.43
2018-08-10T13:31:26.548Z,8.70
2018-08-10T13:33:56.852Z,9.30
2018-08-10T13:36:27.308Z,10.07
2018-08-10T13:38:57.697Z,8.70
2018-08-10T13:41:28.113Z,9.30
2018-08-10T13:43:58.500Z,9.33
2018-08-10T13:46:28.841Z,9.00
2018-08-10T13:48:59.189Z,9.70
2018-08-10T13:51:29.539Z,9.50
2018-08-10T13:53:59.878Z,8.97
2018-08-10T13:56:30.303Z,10.07
2018-08-10T13:59:00.765Z,8.40
2018-08-10T14:01:31.116Z,8.80
2018-08-10T14:04:01.532Z,8.67
2018-08-10T14:06:31.948Z,8.47
2018-08-10T14:09:02.293Z,8.97
2018-08-10T14:11:32.715Z,9.30
2018-08-10T14:14:03.136Z,8.67
2018-08-10T14:16:33.521Z,13.43
2018-08-10T14:19:03.992Z,14.00
2018-08-10T14:21:34.872Z,11.00
2018-08-10T14:24:05.373Z,9.07
2018-08-10T14:26:36.654Z,8.57
2018-08-10T14:29:07.862Z,8.10
2018-08-10T14:31:38.245Z,8.53
2018-08-10T14:34:08.626Z,9.17
2018-08-10T14:36:39.017Z,8.40
2018-08-10T14:39:11.648Z,8.97
2018-08-10T14:41:42.050Z,8.50
2018-08-10T14:44:12.672Z,8.90
2018-08-10T14:46:43.065Z,8.93
2018-08-10T14:49:13.450Z,8.90
2018-08-10T14:51:43.843Z,7.80
2018-08-10T14:54:14.213Z,7.90
2018-08-10T14:56:44.536Z,8.77
2018-08-10T14:59:15.029Z,8.47
2018-08-10T15:01:45.337Z,7.80
2018-08-10T15:04:15.655Z,8.13
2018-08-10T15:06:46.005Z,7.77
2018-08-10T15:09:16.405Z,7.83
2018-08-10T15:11:46.946Z,7.17
2018-08-10T15:14:17.892Z,7.20
2018-08-10T15:16:48.323Z,7.60
2018-08-10T15:19:18.663Z,7.17
2018-08-10T15:21:49.029Z,7.60
2018-08-10T15:24:20.267Z,6.97
2018-08-10T15:26:50.627Z,7.80
2018-08-10T15:29:21.010Z,7.50
2018-08-10T15:31:51.398Z,9.50
2018-08-10T15:34:21.743Z,7.40
2018-08-10T15:36:52.066Z,8.20
2018-08-10T15:39:22.407Z,8.47
2018-08-10T15:41:52.771Z,7.43
2018-08-10T15:44:23.152Z,8.20
2018-08-10T15:46:53.837Z,7.87
2018-08-10T15:49:24.176Z,7.63
2018-08-10T15:51:54.499Z,7.40
2018-08-10T15:54:24.820Z,7.13
2018-08-10T15:56:56.016Z,7.50
2018-08-10T15:59:26.552Z,7.57
2018-08-10T16:01:56.907Z,8.30
2018-08-10T16:04:27.294Z,6.97
2018-08-10T16:06:57.948Z,7.23
2018-08-10T16:09:28.241Z,6.90
2018-08-10T16:11:58.554Z,7.90
2018-08-10T16:14:28.856Z,7.30
2018-08-10T16:16:59.183Z,7.43
2018-08-10T16:19:29.559Z,7.97
2018-08-10T16:21:59.998Z,6.97
2018-08-10T16:24:30.383Z,8.27
2018-08-10T16:27:00.773Z,7.83
2018-08-10T16:29:31.136Z,7.40
2018-08-10T16:32:01.427Z,7.80
2018-08-10T16:34:31.827Z,7.50
2018-08-10T16:37:02.220Z,22.93
2018-08-10T16:39:32.595Z,12.77
2018-08-10T16:42:03.036Z,17.50
2018-08-10T16:44:33.628Z,8.70
2018-08-10T16:47:03.938Z,7.37
2018-08-10T16:49:34.357Z,7.40
2018-08-10T16:52:05.024Z,9.20
2018-08-10T16:54:35.463Z,7.47
2018-08-10T16:57:05.961Z,8.60
2018-08-10T16:59:36.320Z,7.80
2018-08-10T17:02:06.678Z,8.30
2018-08-10T17:04:37.001Z,8.40
2018-08-10T17:07:13.664Z,9.93
2018-08-10T17:09:44.083Z,10.40
2018-08-10T17:12:14.404Z,9.40
2018-08-10T17:14:44.730Z,9.17
2018-08-10T17:17:15.060Z,8.43
2018-08-10T17:19:45.453Z,8.97
2018-08-10T17:22:15.897Z,8.10
2018-08-10T17:24:46.340Z,9.00
2018-08-10T17:27:16.639Z,9.20
2018-08-10T17:29:46.935Z,8.17
2018-08-10T17:32:17.256Z,9.37
2018-08-10T17:34:47.572Z,8.77
2018-08-10T17:37:18.004Z,22.63
2018-08-10T17:39:48.578Z,18.90
2018-08-10T17:42:18.889Z,14.60
2018-08-10T17:44:49.338Z,10.93
2018-08-10T17:47:19.749Z,9.60
2018-08-10T17:49:50.676Z,8.53
2018-08-10T17:52:21.139Z,9.70
2018-08-10T17:54:51.597Z,10.20
2018-08-10T17:57:21.924Z,10.30
2018-08-10T17:59:52.290Z,10.03
2018-08-10T18:02:22.616Z,10.60
2018-08-10T18:04:53.028Z,10.50
2018-08-10T18:07:24.424Z,10.83
2018-08-10T18:09:54.917Z,11.60
2018-08-10T18:12:25.215Z,12.40
2018-08-10T18:14:55.741Z,12.97
2018-08-10T18:17:26.113Z,13.20
2018-08-10T18:19:56.485Z,14.03
2018-08-10T18:22:26.988Z,9.73
2018-08-10T18:24:57.499Z,10.13
2018-08-10T18:27:27.943Z,10.70
2018-08-10T18:29:58.367Z,10.37
2018-08-10T18:32:28.991Z,10.83
2018-08-10T18:34:59.403Z,10.07
2018-08-10T18:37:30.075Z,11.20
2018-08-10T18:40:00.533Z,12.20
2018-08-10T18:42:31.017Z,11.77
2018-08-10T18:45:01.465Z,11.37
2018-08-10T18:47:31.869Z,14.27
2018-08-10T18:50:02.541Z,16.93
2018-08-10T18:52:32.875Z,17.57
2018-08-10T18:55:03.320Z,15.97
2018-08-10T18:57:34.126Z,17.70
2018-08-10T19:00:05.383Z,40.00
2018-08-10T19:02:35.824Z,34.33
2018-08-10T19:05:09.446Z,21.33
2018-08-10T19:07:39.887Z,18.23
2018-08-10T19:10:12.219Z,16.13
2018-08-10T19:12:42.575Z,15.80
2018-08-10T19:15:13.676Z,16.23
2018-08-10T19:17:44.841Z,16.47
2018-08-10T19:20:15.733Z,16.57
2018-08-10T19:22:46.542Z,17.23
2018-08-10T19:25:17.572Z,17.73
2018-08-10T19:27:48.071Z,17.90
2018-08-10T19:30:23.243Z,19.00
2018-08-10T19:32:54.580Z,17.00
2018-08-10T19:35:24.982Z,17.70
2018-08-10T19:37:55.401Z,16.77
2018-08-10T19:40:25.798Z,16.50
2018-08-10T19:42:56.163Z,15.90
2018-08-10T19:45:26.501Z,16.10
2018-08-10T19:47:56.884Z,15.63
2018-08-10T19:50:27.639Z,15.30
2018-08-10T19:52:58.125Z,16.00
2018-08-10T19:55:28.504Z,15.67
2018-08-10T19:57:58.917Z,14.17
2018-08-10T20:00:29.371Z,14.77
2018-08-10T20:02:59.777Z,14.70
2018-08-10T20:05:30.147Z,13.67
2018-08-10T20:08:00.556Z,15.77
2018-08-10T20:10:31.022Z,14.33
2018-08-10T20:13:01.410Z,14.23
2018-08-10T20:15:31.887Z,14.70
2018-08-10T20:18:02.243Z,14.60
2018-08-10T20:20:32.627Z,14.30
2018-08-10T20:23:03.079Z,13.93
2018-08-10T20:25:33.399Z,16.63
2018-08-10T20:28:09.206Z,15.70
2018-08-10T20:30:39.540Z,19.37
2018-08-10T20:33:09.904Z,27.70
2018-08-10T20:35:40.676Z,16.83
2018-08-10T20:38:11.072Z,16.47
2018-08-10T20:40:41.581Z,16.77
2018-08-10T20:43:12.125Z,16.50
2018-08-10T20:45:42.505Z,15.50
2018-08-10T20:48:12.851Z,17.13
2018-08-10T20:50:43.648Z,17.10
2018-08-10T20:53:14.061Z,15.97
2018-08-10T20:55:44.549Z,15.97
2018-08-10T20:58:14.867Z,16.20
2018-08-10T21:00:45.209Z,14.93
2018-08-10T21:03:15.607Z,16.03
2018-08-10T21:05:45.933Z,15.70
2018-08-10T21:08:16.305Z,16.33
2018-08-10T21:10:47.452Z,15.83
2018-08-10T21:13:17.854Z,15.97
2018-08-10T21:15:48.327Z,16.07
2018-08-10T21:18:18.790Z,16.23
2018-08-10T21:20:49.233Z,16.13
2018-08-10T21:23:19.594Z,16.70
2018-08-10T21:25:49.944Z,15.87
2018-08-10T21:28:20.256Z,17.50
2018-08-10T21:30:50.677Z,15.27
2018-08-10T21:33:21.006Z,15.60
2018-08-10T21:35:51.490Z,16.73
2018-08-10T21:38:21.855Z,17.30
2018-08-10T21:40:52.463Z,16.93
2018-08-10T21:43:23.400Z,17.00
2018-08-10T21:45:53.702Z,17.00
2018-08-10T21:48:24.341Z,17.40
2018-08-10T21:50:54.614Z,17.07
2018-08-10T21:53:25.047Z,16.97
2018-08-10T21:55:55.341Z,17.17
2018-08-10T21:58:25.680Z,18.33
2018-08-10T22:01:01.488Z,18.50
2018-08-10T22:03:31.923Z,17.30
2018-08-10T22:06:02.309Z,16.60
2018-08-10T22:08:32.646Z,16.50
2018-08-10T22:11:03.033Z,16.43
2018-08-10T22:13:38.682Z,16.77
2018-08-10T22:16:14.203Z,16.70
2018-08-10T22:18:49.710Z,15.60
2018-08-10T22:21:20.044Z,15.87
2018-08-10T22:23:50.472Z,15.73
2018-08-10T22:26:20.884Z,15.57
2018-08-10T22:28:51.300Z,14.73
2018-08-10T22:31:21.793Z,14.73
2018-08-10T22:33:52.238Z,14.43
2018-08-10T22:36:23.704Z,14.73
2018-08-10T22:38:54.056Z,15.20
2018-08-10T22:41:24.360Z,13.97
2018-08-10T22:43:54.675Z,13.60
2018-08-10T22:46:24.996Z,14.80
2018-08-10T22:48:55.448Z,13.10
2018-08-10T22:51:25.756Z,13.57
2018-08-10T22:53:56.255Z,13.17
2018-08-10T22:56:26.625Z,12.63
2018-08-10T22:58:57.260Z,13.77
2018-08-10T23:01:27.605Z,13.30
2018-08-10T23:03:58.325Z,13.17
2018-08-10T23:06:28.610Z,12.40
2018-08-10T23:08:59.167Z,12.40
2018-08-10T23:11:29.534Z,14.07
2018-08-10T23:13:59.952Z,12.90
2018-08-10T23:16:30.288Z,12.47
2018-08-10T23:19:00.732Z,12.57
2018-08-10T23:21:31.162Z,12.70
2018-08-10T23:24:02.079Z,12.40
2018-08-10T23:26:32.419Z,12.80
2018-08-10T23:29:02.948Z,13.53
2018-08-10T23:31:33.269Z,12.03
2018-08-10T23:34:04.691Z,12.83
2018-08-10T23:36:35.058Z,11.30
2018-08-10T23:39:08.409Z,11.83
2018-08-10T23:41:38.948Z,13.10
2018-08-10T23:44:09.615Z,12.80
2018-08-10T23:46:40.021Z,12.33
2018-08-10T23:49:10.374Z,12.50
2018-08-10T23:51:40.704Z,12.20
2018-08-10T23:54:11.036Z,12.60
2018-08-10T23:56:41.476Z,13.17
2018-08-10T23:59:11.891Z,13.03
